Weather reports worldwide

Advertisment
Teruel, Spain (8235): temperature & dewpoint: 13.05.2019 21:00:00 - 19.05.2019 21:00:00 (CEST)Teruel, Spain (8235): wind speed: 13.05.2019 21:00:00 - 19.05.2019 21:00:00 (CEST)Teruel, Spain (8235): wind direction: 13.05.2019 21:00:00 - 19.05.2019 21:00:00 (CEST)Teruel, Spain (8235): visibility: 13.05.2019 21:00:00 - 19.05.2019 21:00:00 (CEST)Teruel, Spain (8235): precipitation: 13.05.2019 21:00:00 - 19.05.2019 21:00:00 (CEST)
Date & Time tt [°C] td [°C] ff [km/h] ff [kn] dd vv [km] rr [mm]
19.05.2019 21:00:00 10,2 6,5 8 4 NW 20 0,0
19.05.2019 20:00:00 9,7 7,1 8 4 NNE 9 -
19.05.2019 19:00:00 10,5 4,8 18 10 W 20 0,0
19.05.2019 18:00:00 12,1 5,0 15 8 W 20 0,0
19.05.2019 17:00:00 15,5 3,3 15 8 NNW 20 -
19.05.2019 16:00:00 16,9 2,1 15 8 NW 20 0,0
19.05.2019 15:00:00 15,9 2,3 13 7 N 20 0,0
19.05.2019 14:00:00 15,0 2,8 18 10 NNW 20 -
19.05.2019 13:00:00 14,1 3,5 16 9 NNW 20 0,0
19.05.2019 12:00:00 13,7 3,2 11 6 NNW 20 0,0
19.05.2019 11:00:00 11,7 2,4 16 9 NNW 20 -
19.05.2019 10:00:00 9,7 2,8 9 5 NNW 20 0,0
19.05.2019 09:00:00 6,2 2,8 4 2 SSE 20 0,0
19.05.2019 08:00:00 2,5 1,6 2 1 W 20 -
19.05.2019 07:00:00 1,2 -0,1 4 2 NNW 20 0,0
19.05.2019 06:00:00 1,9 0,6 0 0 N 20 0,0
19.05.2019 05:00:00 2,2 1,0 4 2 N 20 -
19.05.2019 04:00:00 3,1 1,3 4 2 N 20 0,0
19.05.2019 03:00:00 3,9 1,9 4 2 W 20 0,0
19.05.2019 02:00:00 5,2 2,4 4 2 WNW 19 -
19.05.2019 01:00:00 6,7 2,9 2 1 W 20 0,0
19.05.2019 00:00:00 7,6 2,9 2 1 W 20 0,0
18.05.2019 23:00:00 8,2 3,6 4 2 NNE 20 -
18.05.2019 22:00:00 9,4 3,6 9 5 NE 20 0,0
18.05.2019 21:00:00 10,7 2,8 5 3 N 20 0,0
18.05.2019 20:00:00 13,6 0,9 11 6 NW 20 -
18.05.2019 19:00:00 14,9 -2,1 11 6 NNW 20 0,0
18.05.2019 18:00:00 16,5 -2,6 13 7 N 20 0,0
18.05.2019 17:00:00 17,1 -1,6 11 6 NNW 20 -
18.05.2019 16:00:00 16,2 -1,0 11 6 WNW 20 0,0
18.05.2019 15:00:00 15,2 0,2 8 4 NNW 20 0,0
18.05.2019 14:00:00 13,6 3,4 9 5 N 20 -
18.05.2019 13:00:00 12,0 3,7 4 2 WNW 20 0,0
18.05.2019 12:00:00 10,4 4,7 5 3 W 20 0,0
18.05.2019 11:00:00 8,6 5,2 4 2 W 15 -
18.05.2019 10:00:00 7,7 3,9 2 1 NW 20 0,0
18.05.2019 09:00:00 6,0 3,2 2 1 NW 20 0,0
18.05.2019 08:00:00 4,1 2,4 4 2 NE 20 -
18.05.2019 07:00:00 3,1 1,9 0 0 N 20 0,0
18.05.2019 06:00:00 2,7 1,4 2 1 NNE 19 0,0
18.05.2019 05:00:00 3,1 1,6 2 1 NNE 20 -
18.05.2019 04:00:00 3,7 2,2 2 1 SE 20 0,0
18.05.2019 03:00:00 4,3 2,2 2 1 NNW 19 0,0
18.05.2019 02:00:00 5,1 2,9 2 1 NE 20 -
18.05.2019 01:00:00 6,2 3,4 5 3 N 20 0,0
18.05.2019 00:00:00 7,0 3,8 4 2 NNE 20 0,0
17.05.2019 23:00:00 8,3 3,5 5 3 NNW 20 -
17.05.2019 22:00:00 9,1 3,5 4 2 N 20 0,0
17.05.2019 21:00:00 10,5 3,5 9 5 NNW 20 0,0
17.05.2019 20:00:00 11,4 3,9 9 5 NNW 20 -
17.05.2019 19:00:00 11,6 3,9 16 9 NW 20 0,0
17.05.2019 18:00:00 13,8 3,8 18 10 NW 20 0,0
17.05.2019 17:00:00 13,2 3,5 18 10 NNW 20 -
17.05.2019 16:00:00 12,6 3,8 16 9 NW 20 0,0
17.05.2019 15:00:00 11,7 3,5 21 11 NW 20 0,0
17.05.2019 14:00:00 11,9 3,1 18 10 NW 20 -
17.05.2019 13:00:00 11,8 3,0 24 13 NW 20 0,0
17.05.2019 12:00:00 12,7 3,6 24 13 NW 20 0,0
17.05.2019 11:00:00 10,7 3,0 21 11 NW 20 -
17.05.2019 10:00:00 10,7 3,2 18 10 NW 20 0,0
17.05.2019 09:00:00 9,5 4,1 11 6 NW 20 0,0
17.05.2019 08:00:00 7,9 4,3 9 5 NNW 20 -
17.05.2019 07:00:00 9,4 3,1 8 4 N 20 0,0
17.05.2019 06:00:00 9,2 3,6 8 4 N 20 0,0
17.05.2019 05:00:00 9,7 4,7 5 3 NNE 20 -
17.05.2019 04:00:00 9,9 4,9 9 5 NE 20 0,0
17.05.2019 03:00:00 12,0 6,5 11 6 NE 20 0,0
17.05.2019 02:00:00 11,7 8,5 13 7 S 20 -
17.05.2019 01:00:00 12,6 8,9 16 9 S 20 0,0
17.05.2019 00:00:00 13,9 9,9 21 11 S 20 0,0
16.05.2019 23:00:00 15,1 10,9 9 5 SSE 20 -
16.05.2019 22:00:00 15,7 11,3 5 3 ESE 20 0,0
16.05.2019 21:00:00 17,9 11,7 9 5 SE 20 0,0
16.05.2019 20:00:00 22,2 12,4 9 5 ESE 20 -
16.05.2019 19:00:00 25,8 10,4 21 11 S 20 0,0
16.05.2019 18:00:00 27,7 9,5 16 9 SSW 20 0,0
16.05.2019 17:00:00 27,9 9,2 18 10 S 20 -
16.05.2019 16:00:00 27,4 10,1 15 8 S 20 0,0
16.05.2019 15:00:00 24,8 11,0 16 9 S 20 0,0
16.05.2019 14:00:00 23,0 11,1 13 7 S 20 -
16.05.2019 13:00:00 20,5 10,9 15 8 S 20 0,0
16.05.2019 12:00:00 18,0 10,6 9 5 SSW 20 0,0
16.05.2019 11:00:00 16,2 10,3 9 5 SSW 20 -
16.05.2019 10:00:00 13,7 9,1 11 6 SSW 20 0,0
16.05.2019 09:00:00 11,8 9,2 9 5 S 20 0,0
16.05.2019 08:00:00 11,7 8,9 11 6 S 20 -
16.05.2019 07:00:00 11,8 9,0 4 2 SSE 20 0,0
16.05.2019 06:00:00 12,2 9,2 9 5 S 20 0,0
16.05.2019 05:00:00 12,4 9,6 5 3 S 18 -
16.05.2019 04:00:00 12,6 10,1 11 6 S 2,3 0,0
16.05.2019 03:00:00 11,4 10,1 2 1 ESE 12 0,0
16.05.2019 02:00:00 11,9 9,8 2 1 SW 11 -
16.05.2019 01:00:00 12,9 10,1 4 2 SE 20 0,0
16.05.2019 00:00:00 14,2 10,0 4 2 S 20 0,0
15.05.2019 23:00:00 16,1 9,7 5 3 SSE 20 -
15.05.2019 22:00:00 18,4 10,0 4 2 SE 20 0,0
15.05.2019 21:00:00 21,8 6,1 4 2 SSE 20 0,0
15.05.2019 20:00:00 25,0 2,4 5 3 N 20 -
15.05.2019 19:00:00 27,4 -0,7 8 4 N 20 0,0
15.05.2019 18:00:00 27,9 -2,1 9 5 N 20 0,0
15.05.2019 17:00:00 27,9 -1,1 13 7 NNW 20 -
15.05.2019 16:00:00 27,9 -2,1 13 7 NNW 20 0,0
15.05.2019 15:00:00 26,9 -1,1 13 7 N 20 0,0
15.05.2019 14:00:00 26,0 -1,0 15 8 NNW 18 -
15.05.2019 13:00:00 25,2 0,6 9 5 NNW 20 0,0
15.05.2019 12:00:00 23,0 3,0 11 6 NNW 20 0,0
15.05.2019 11:00:00 19,2 5,6 5 3 SW 20 -
15.05.2019 10:00:00 15,7 5,6 4 2 ESE 20 0,0
15.05.2019 09:00:00 11,1 5,6 4 2 WSW 20 0,0
15.05.2019 08:00:00 7,0 4,3 4 2 NNE 20 -
15.05.2019 07:00:00 6,1 3,9 2 1 N 20 0,0
15.05.2019 06:00:00 6,9 4,2 4 2 NNW 20 0,0
15.05.2019 05:00:00 7,9 4,7 2 1 W 20 -
15.05.2019 04:00:00 9,0 5,0 2 1 NNW 20 0,0
15.05.2019 03:00:00 9,9 5,7 2 1 WNW 20 0,0
15.05.2019 02:00:00 11,8 6,1 4 2 N 20 -
15.05.2019 01:00:00 13,2 6,8 4 2 NW 20 0,0
15.05.2019 00:00:00 14,3 8,3 5 3 W 20 0,0
14.05.2019 23:00:00 17,2 8,6 4 2 N 20 -
14.05.2019 22:00:00 19,8 7,8 4 2 SSE 20 0,0
14.05.2019 21:00:00 24,0 4,9 4 2 SSW 20 0,0
14.05.2019 20:00:00 27,7 5,3 5 3 S 20 -
14.05.2019 19:00:00 28,1 3,7 8 4 SW 18 0,0
14.05.2019 18:00:00 27,2 3,0 4 2 NNW 19 0,0
14.05.2019 17:00:00 26,6 3,1 4 2 ESE 20 -
14.05.2019 16:00:00 26,1 2,7 5 3 NNE 20 0,0
14.05.2019 15:00:00 24,9 0,4 5 3 E 20 0,0
14.05.2019 14:00:00 23,9 2,1 5 3 S 20 -
14.05.2019 13:00:00 22,3 1,9 5 3 SSE 20 0,0
14.05.2019 12:00:00 20,2 -0,5 11 6 S 20 0,0
14.05.2019 11:00:00 17,1 1,5 8 4 S 20 -
14.05.2019 10:00:00 13,9 3,6 4 2 ESE 20 0,0
14.05.2019 09:00:00 10,2 3,0 5 3 ENE 20 0,0
14.05.2019 08:00:00 4,7 2,4 2 1 E 20 -
14.05.2019 07:00:00 3,8 1,3 2 1 N 20 0,0
14.05.2019 06:00:00 4,6 1,8 0 0 N 20 0,0
14.05.2019 05:00:00 5,2 2,0 2 1 NNW 20 -
14.05.2019 04:00:00 6,3 2,6 2 1 NNW 20 0,0
14.05.2019 03:00:00 7,9 2,6 2 1 NNE 20 0,0
14.05.2019 02:00:00 9,2 3,0 2 1 WSW 20 -
14.05.2019 01:00:00 10,2 2,8 4 2 SE 20 0,0
14.05.2019 00:00:00 11,5 3,5 2 1 SSE 20 0,0
13.05.2019 23:00:00 13,0 4,2 5 3 ESE 20 -
13.05.2019 22:00:00 15,0 4,7 5 3 ESE 20 0,0
13.05.2019 21:00:00 17,4 5,7 5 3 E 20 0,0

tt = temperature
td = dewpoint
ff = wind speed
dd = wind direction
vv = visibility
rr = precipitation

Next stations